Springbok, South Africa
Current Conditions -  °F | °C
As of 3:00 AM on Sunday 21 Dec 2014 (Local Time) from FAUP Reporting Station
Clear Clear  
Wind Chill: 68°   Ceiling: Unl
Heat Index: 68°   Visibility: 6mi
Dew Point: 27°   Wind: 5mph
Humidity: 21%   Direction: 200°SSW
Pressure: 29.91"   Gusts: NA
Location:  29.67°S, 17.88°E
Report Text: FAUP 210100Z 20004KT CAVOK 20/M03 Q1013 NOSIG
Loading
Personal Weather Stations






























Interactive Weather Map New forecast layout! Learn more

10-Day Weather Forecast

Advertisements
Track Severe Weather on mobile